sensor_id;sensor_type;location;lat;lon;timestamp;pressure;altitude;pressure_sealevel;temperature;humidity
18678;BME280;9469;51.114;13.914;2023-04-16T00:03:28;98537.19;;;7.04;100.00
18678;BME280;9469;51.114;13.914;2023-04-16T00:08:35;98549.19;;;7.20;100.00
18678;BME280;9469;51.114;13.914;2023-04-16T00:13:42;98551.88;;;7.15;100.00
18678;BME280;9469;51.114;13.914;2023-04-16T00:18:51;98550.75;;;6.98;100.00
18678;BME280;9469;51.114;13.914;2023-04-16T00:23:59;98566.19;;;6.86;100.00
18678;BME280;9469;51.114;13.914;2023-04-16T00:29:05;98567.41;;;6.70;100.00
18678;BME280;9469;51.114;13.914;2023-04-16T00:34:16;98556.91;;;6.65;100.00
18678;BME280;9469;51.114;13.914;2023-04-16T00:39:24;98571.13;;;6.69;100.00
18678;BME280;9469;51.114;13.914;2023-04-16T00:44:38;98565.25;;;6.72;100.00
18678;BME280;9469;51.114;13.914;2023-04-16T00:49:50;98572.31;;;6.81;100.00
18678;BME280;9469;51.114;13.914;2023-04-16T00:54:58;98568.81;;;6.91;100.00
18678;BME280;9469;51.114;13.914;2023-04-16T01:00:05;98560.88;;;6.62;100.00
18678;BME280;9469;51.114;13.914;2023-04-16T01:05:16;98582.25;;;6.66;100.00
18678;BME280;9469;51.114;13.914;2023-04-16T01:10:23;98577.25;;;6.64;100.00
18678;BME280;9469;51.114;13.914;2023-04-16T01:15:31;98583.41;;;6.55;100.00
18678;BME280;9469;51.114;13.914;2023-04-16T01:20:44;98580.06;;;6.73;100.00
18678;BME280;9469;51.114;13.914;2023-04-16T01:25:52;98577.00;;;6.61;100.00
18678;BME280;9469;51.114;13.914;2023-04-16T01:31:01;98580.97;;;6.58;100.00
18678;BME280;9469;51.114;13.914;2023-04-16T01:36:36;98584.09;;;6.31;100.00
18678;BME280;9469;51.114;13.914;2023-04-16T01:41:43;98576.94;;;6.37;100.00
18678;BME280;9469;51.114;13.914;2023-04-16T01:46:51;98576.75;;;6.23;100.00
18678;BME280;9469;51.114;13.914;2023-04-16T01:52:01;98591.13;;;6.07;100.00
18678;BME280;9469;51.114;13.914;2023-04-16T01:57:09;98579.44;;;6.13;100.00
18678;BME280;9469;51.114;13.914;2023-04-16T02:02:16;98576.97;;;6.32;100.00
18678;BME280;9469;51.114;13.914;2023-04-16T02:07:27;98578.06;;;6.26;100.00
18678;BME280;9469;51.114;13.914;2023-04-16T02:12:33;98592.16;;;6.06;100.00
18678;BME280;9469;51.114;13.914;2023-04-16T02:17:42;98586.50;;;5.84;100.00
18678;BME280;9469;51.114;13.914;2023-04-16T02:22:52;98596.59;;;5.57;100.00
18678;BME280;9469;51.114;13.914;2023-04-16T02:27:58;98609.81;;;5.52;100.00
18678;BME280;9469;51.114;13.914;2023-04-16T02:33:11;98602.47;;;5.39;100.00
18678;BME280;9469;51.114;13.914;2023-04-16T02:38:34;98612.44;;;5.52;100.00
18678;BME280;9469;51.114;13.914;2023-04-16T02:43:41;98596.41;;;5.38;100.00
18678;BME280;9469;51.114;13.914;2023-04-16T02:48:47;98624.00;;;5.71;100.00
18678;BME280;9469;51.114;13.914;2023-04-16T02:53:57;98623.56;;;5.39;100.00
18678;BME280;9469;51.114;13.914;2023-04-16T02:59:06;98630.88;;;5.67;100.00
18678;BME280;9469;51.114;13.914;2023-04-16T03:04:12;98614.97;;;5.92;100.00
18678;BME280;9469;51.114;13.914;2023-04-16T03:09:21;98627.78;;;5.45;100.00
18678;BME280;9469;51.114;13.914;2023-04-16T03:14:29;98625.97;;;5.40;100.00
18678;BME280;9469;51.114;13.914;2023-04-16T03:19:35;98644.22;;;5.01;100.00
18678;BME280;9469;51.114;13.914;2023-04-16T03:24:46;98652.66;;;4.73;100.00
18678;BME280;9469;51.114;13.914;2023-04-16T03:29:52;98664.50;;;4.91;100.00
18678;BME280;9469;51.114;13.914;2023-04-16T03:34:59;98653.19;;;4.80;100.00
18678;BME280;9469;51.114;13.914;2023-04-16T03:40:12;98665.06;;;4.88;100.00
18678;BME280;9469;51.114;13.914;2023-04-16T03:45:18;98656.84;;;4.34;100.00
18678;BME280;9469;51.114;13.914;2023-04-16T03:50:29;98660.31;;;4.75;100.00
18678;BME280;9469;51.114;13.914;2023-04-16T03:55:41;98662.59;;;4.16;100.00
18678;BME280;9469;51.114;13.914;2023-04-16T04:00:48;98672.34;;;4.20;100.00
18678;BME280;9469;51.114;13.914;2023-04-16T04:05:56;98687.25;;;4.05;100.00
18678;BME280;9469;51.114;13.914;2023-04-16T04:11:07;98702.84;;;4.16;100.00
18678;BME280;9469;51.114;13.914;2023-04-16T04:16:18;98692.38;;;4.31;100.00
18678;BME280;9469;51.114;13.914;2023-04-16T04:21:25;98694.19;;;4.26;100.00
18678;BME280;9469;51.114;13.914;2023-04-16T04:26:37;98689.75;;;4.42;100.00
18678;BME280;9469;51.114;13.914;2023-04-16T04:31:45;98704.97;;;4.19;100.00
18678;BME280;9469;51.114;13.914;2023-04-16T04:36:52;98702.16;;;4.51;100.00
18678;BME280;9469;51.114;13.914;2023-04-16T04:42:06;98710.88;;;4.57;100.00
18678;BME280;9469;51.114;13.914;2023-04-16T04:47:13;98703.38;;;4.18;100.00
18678;BME280;9469;51.114;13.914;2023-04-16T04:52:27;98718.16;;;4.34;100.00
18678;BME280;9469;51.114;13.914;2023-04-16T04:57:36;98716.66;;;4.64;100.00
18678;BME280;9469;51.114;13.914;2023-04-16T05:02:43;98706.69;;;4.66;100.00
18678;BME280;9469;51.114;13.914;2023-04-16T05:07:50;98723.47;;;4.45;100.00
18678;BME280;9469;51.114;13.914;2023-04-16T05:13:05;98723.22;;;4.51;100.00
18678;BME280;9469;51.114;13.914;2023-04-16T05:18:14;98725.41;;;4.79;100.00
18678;BME280;9469;51.114;13.914;2023-04-16T05:23:21;98730.69;;;4.79;100.00
18678;BME280;9469;51.114;13.914;2023-04-16T05:28:30;98722.78;;;5.09;100.00
18678;BME280;9469;51.114;13.914;2023-04-16T05:33:36;98734.91;;;5.16;100.00
18678;BME280;9469;51.114;13.914;2023-04-16T05:38:43;98747.03;;;5.17;100.00
18678;BME280;9469;51.114;13.914;2023-04-16T05:43:55;98738.84;;;5.03;100.00
18678;BME280;9469;51.114;13.914;2023-04-16T05:49:02;98764.94;;;5.55;100.00
18678;BME280;9469;51.114;13.914;2023-04-16T05:54:09;98767.56;;;5.75;100.00
18678;BME280;9469;51.114;13.914;2023-04-16T05:59:19;98764.38;;;5.98;100.00
18678;BME280;9469;51.114;13.914;2023-04-16T06:04:25;98761.47;;;6.00;100.00
18678;BME280;9469;51.114;13.914;2023-04-16T06:09:34;98774.34;;;6.16;100.00
18678;BME280;9469;51.114;13.914;2023-04-16T06:14:49;98775.56;;;6.44;100.00
18678;BME280;9469;51.114;13.914;2023-04-16T06:19:57;98775.78;;;6.53;100.00
18678;BME280;9469;51.114;13.914;2023-04-16T06:25:19;98778.59;;;7.15;100.00
18678;BME280;9469;51.114;13.914;2023-04-16T06:30:30;98788.41;;;7.14;100.00
18678;BME280;9469;51.114;13.914;2023-04-16T06:35:40;98798.81;;;7.01;100.00
18678;BME280;9469;51.114;13.914;2023-04-16T06:40:47;98797.19;;;7.44;100.00
18678;BME280;9469;51.114;13.914;2023-04-16T06:45:59;98788.22;;;7.68;100.00
18678;BME280;9469;51.114;13.914;2023-04-16T06:51:06;98788.03;;;7.88;100.00
18678;BME280;9469;51.114;13.914;2023-04-16T06:56:13;98788.78;;;8.18;100.00
18678;BME280;9469;51.114;13.914;2023-04-16T07:01:29;98788.38;;;9.46;100.00
18678;BME280;9469;51.114;13.914;2023-04-16T07:06:55;98783.97;;;9.55;100.00
18678;BME280;9469;51.114;13.914;2023-04-16T07:12:01;98785.84;;;9.55;100.00
18678;BME280;9469;51.114;13.914;2023-04-16T07:17:10;98781.88;;;9.98;100.00
18678;BME280;9469;51.114;13.914;2023-04-16T07:22:20;98803.59;;;10.32;100.00
18678;BME280;9469;51.114;13.914;2023-04-16T07:27:25;98792.47;;;10.57;100.00
18678;BME280;9469;51.114;13.914;2023-04-16T07:38:23;98813.16;;;10.60;100.00
18678;BME280;9469;51.114;13.914;2023-04-16T07:43:36;98814.28;;;10.00;100.00
18678;BME280;9469;51.114;13.914;2023-04-16T07:48:41;98821.00;;;10.11;100.00
18678;BME280;9469;51.114;13.914;2023-04-16T07:53:50;98813.03;;;10.52;100.00
18678;BME280;9469;51.114;13.914;2023-04-16T07:58:57;98813.41;;;10.72;100.00
18678;BME280;9469;51.114;13.914;2023-04-16T08:04:20;98804.78;;;10.67;100.00
18678;BME280;9469;51.114;13.914;2023-04-16T08:09:30;98817.38;;;11.46;100.00
18678;BME280;9469;51.114;13.914;2023-04-16T08:14:37;98815.69;;;11.73;100.00
18678;BME280;9469;51.114;13.914;2023-04-16T08:19:43;98829.66;;;11.78;100.00
18678;BME280;9469;51.114;13.914;2023-04-16T08:24:53;98831.72;;;11.59;100.00
18678;BME280;9469;51.114;13.914;2023-04-16T08:30:00;98847.41;;;11.25;100.00
18678;BME280;9469;51.114;13.914;2023-04-16T08:35:13;98839.88;;;11.63;100.00
18678;BME280;9469;51.114;13.914;2023-04-16T08:40:23;98859.81;;;12.09;100.00
18678;BME280;9469;51.114;13.914;2023-04-16T08:45:30;98857.09;;;12.32;100.00
18678;BME280;9469;51.114;13.914;2023-04-16T08:50:42;98869.00;;;12.73;100.00
18678;BME280;9469;51.114;13.914;2023-04-16T08:55:58;98866.13;;;12.53;100.00
18678;BME280;9469;51.114;13.914;2023-04-16T09:01:08;98869.69;;;12.87;100.00
18678;BME280;9469;51.114;13.914;2023-04-16T09:06:16;98873.84;;;13.88;100.00
18678;BME280;9469;51.114;13.914;2023-04-16T09:11:24;98874.63;;;13.80;98.67
18678;BME280;9469;51.114;13.914;2023-04-16T09:16:32;98877.16;;;13.25;100.00
18678;BME280;9469;51.114;13.914;2023-04-16T09:21:40;98879.50;;;13.95;98.86
18678;BME280;9469;51.114;13.914;2023-04-16T09:26:49;98880.13;;;14.09;95.42
18678;BME280;9469;51.114;13.914;2023-04-16T09:32:01;98895.56;;;13.95;94.57
18678;BME280;9469;51.114;13.914;2023-04-16T09:37:14;98888.50;;;13.64;95.23
18678;BME280;9469;51.114;13.914;2023-04-16T09:42:24;98883.00;;;14.79;92.39
18678;BME280;9469;51.114;13.914;2023-04-16T09:47:39;98888.88;;;14.73;90.91
18678;BME280;9469;51.114;13.914;2023-04-16T09:52:48;98901.88;;;13.82;91.90
18678;BME280;9469;51.114;13.914;2023-04-16T09:58:00;98896.84;;;14.52;91.29
18678;BME280;9469;51.114;13.914;2023-04-16T10:03:07;98904.94;;;14.26;92.07
18678;BME280;9469;51.114;13.914;2023-04-16T10:08:13;98898.09;;;14.92;86.33
18678;BME280;9469;51.114;13.914;2023-04-16T10:13:21;98916.13;;;14.03;91.13
18678;BME280;9469;51.114;13.914;2023-04-16T10:18:29;98918.28;;;14.44;88.72
18678;BME280;9469;51.114;13.914;2023-04-16T10:23:43;98913.28;;;14.33;89.37
18678;BME280;9469;51.114;13.914;2023-04-16T10:28:54;98918.31;;;14.09;90.59
18678;BME280;9469;51.114;13.914;2023-04-16T10:34:00;98920.53;;;14.33;90.03
18678;BME280;9469;51.114;13.914;2023-04-16T10:39:09;98916.31;;;13.81;90.88
18678;BME280;9469;51.114;13.914;2023-04-16T10:44:23;98912.53;;;13.90;90.15
18678;BME280;9469;51.114;13.914;2023-04-16T10:49:29;98915.06;;;13.87;89.54
18678;BME280;9469;51.114;13.914;2023-04-16T10:54:35;98919.25;;;14.39;88.42
18678;BME280;9469;51.114;13.914;2023-04-16T10:59:45;98917.94;;;14.54;86.26
18678;BME280;9469;51.114;13.914;2023-04-16T11:04:55;98924.16;;;14.03;88.43
18678;BME280;9469;51.114;13.914;2023-04-16T11:10:06;98931.25;;;14.71;86.20
18678;BME280;9469;51.114;13.914;2023-04-16T11:15:21;98932.78;;;15.39;81.62
18678;BME280;9469;51.114;13.914;2023-04-16T11:20:32;98921.09;;;14.56;79.78
18678;BME280;9469;51.114;13.914;2023-04-16T11:25:38;98923.38;;;15.33;79.96
18678;BME280;9469;51.114;13.914;2023-04-16T11:30:46;98936.47;;;15.05;79.11
18678;BME280;9469;51.114;13.914;2023-04-16T11:35:55;98928.88;;;15.98;77.11
18678;BME280;9469;51.114;13.914;2023-04-16T11:41:02;98911.25;;;15.56;79.38
18678;BME280;9469;51.114;13.914;2023-04-16T11:46:11;98928.59;;;15.29;80.09
18678;BME280;9469;51.114;13.914;2023-04-16T11:51:28;98928.06;;;15.36;77.79
18678;BME280;9469;51.114;13.914;2023-04-16T11:56:35;98929.44;;;14.92;79.93
18678;BME280;9469;51.114;13.914;2023-04-16T12:01:45;98931.16;;;14.96;78.30
18678;BME280;9469;51.114;13.914;2023-04-16T12:07:04;98927.72;;;14.87;76.94
18678;BME280;9469;51.114;13.914;2023-04-16T12:12:25;98926.94;;;15.45;76.00
18678;BME280;9469;51.114;13.914;2023-04-16T12:17:37;98930.28;;;15.34;72.01
18678;BME280;9469;51.114;13.914;2023-04-16T12:22:44;98921.25;;;16.33;68.76
18678;BME280;9469;51.114;13.914;2023-04-16T12:27:53;98918.44;;;15.64;73.13
18678;BME280;9469;51.114;13.914;2023-04-16T12:33:18;98927.22;;;16.38;70.76
18678;BME280;9469;51.114;13.914;2023-04-16T12:38:24;98919.34;;;16.54;72.08
18678;BME280;9469;51.114;13.914;2023-04-16T12:43:29;98935.88;;;16.11;71.52
18678;BME280;9469;51.114;13.914;2023-04-16T12:48:37;98928.00;;;15.73;71.77
18678;BME280;9469;51.114;13.914;2023-04-16T12:53:43;98918.44;;;15.85;71.27
18678;BME280;9469;51.114;13.914;2023-04-16T12:58:50;98927.41;;;15.47;74.39
18678;BME280;9469;51.114;13.914;2023-04-16T13:03:58;98914.50;;;16.47;71.16
18678;BME280;9469;51.114;13.914;2023-04-16T13:09:05;98931.31;;;15.91;76.90
18678;BME280;9469;51.114;13.914;2023-04-16T13:14:11;98928.69;;;15.41;85.42
18678;BME280;9469;51.114;13.914;2023-04-16T13:19:19;98931.22;;;14.79;91.47
18678;BME280;9469;51.114;13.914;2023-04-16T13:24:24;98928.66;;;15.21;90.32
18678;BME280;9469;51.114;13.914;2023-04-16T13:29:31;98939.13;;;15.34;88.73
18678;BME280;9469;51.114;13.914;2023-04-16T13:34:41;98932.31;;;15.66;89.09
18678;BME280;9469;51.114;13.914;2023-04-16T13:39:46;98946.78;;;15.24;90.11
18678;BME280;9469;51.114;13.914;2023-04-16T13:44:51;98933.91;;;15.08;89.69
18678;BME280;9469;51.114;13.914;2023-04-16T13:49:59;98942.84;;;14.46;92.74
18678;BME280;9469;51.114;13.914;2023-04-16T13:55:05;98942.44;;;15.11;91.70
18678;BME280;9469;51.114;13.914;2023-04-16T14:00:12;98940.03;;;15.38;89.35
18678;BME280;9469;51.114;13.914;2023-04-16T14:05:20;98944.50;;;15.05;90.34
18678;BME280;9469;51.114;13.914;2023-04-16T14:10:32;98950.88;;;14.92;90.58
18678;BME280;9469;51.114;13.914;2023-04-16T14:15:37;98949.63;;;14.89;88.67
18678;BME280;9469;51.114;13.914;2023-04-16T14:20:45;98948.66;;;14.94;90.88
18678;BME280;9469;51.114;13.914;2023-04-16T14:25:51;98951.47;;;14.97;92.51
18678;BME280;9469;51.114;13.914;2023-04-16T14:30:57;98953.63;;;14.66;96.22
18678;BME280;9469;51.114;13.914;2023-04-16T14:36:06;98947.81;;;14.64;96.61
18678;BME280;9469;51.114;13.914;2023-04-16T14:41:12;98951.50;;;14.51;98.01
18678;BME280;9469;51.114;13.914;2023-04-16T14:46:18;98946.75;;;14.48;97.04
18678;BME280;9469;51.114;13.914;2023-04-16T14:51:30;98952.00;;;14.10;97.60
18678;BME280;9469;51.114;13.914;2023-04-16T14:56:35;98956.59;;;14.01;99.52
18678;BME280;9469;51.114;13.914;2023-04-16T15:01:42;98955.47;;;14.11;99.70
18678;BME280;9469;51.114;13.914;2023-04-16T15:06:52;98959.41;;;14.05;98.72
18678;BME280;9469;51.114;13.914;2023-04-16T15:12:02;98971.38;;;13.82;100.00
18678;BME280;9469;51.114;13.914;2023-04-16T15:17:11;98978.56;;;13.38;100.00
18678;BME280;9469;51.114;13.914;2023-04-16T15:22:19;98984.09;;;13.85;100.00
18678;BME280;9469;51.114;13.914;2023-04-16T15:27:25;98975.47;;;13.88;100.00
18678;BME280;9469;51.114;13.914;2023-04-16T15:32:30;98990.38;;;13.89;100.00
18678;BME280;9469;51.114;13.914;2023-04-16T15:37:38;98994.94;;;13.45;100.00
18678;BME280;9469;51.114;13.914;2023-04-16T15:42:46;98993.13;;;13.32;100.00
18678;BME280;9469;51.114;13.914;2023-04-16T15:47:53;98991.34;;;13.76;100.00
18678;BME280;9469;51.114;13.914;2023-04-16T15:53:03;98998.22;;;13.42;100.00
18678;BME280;9469;51.114;13.914;2023-04-16T15:58:10;98996.19;;;13.56;100.00
18678;BME280;9469;51.114;13.914;2023-04-16T16:03:16;99010.97;;;13.62;100.00
18678;BME280;9469;51.114;13.914;2023-04-16T16:08:27;99018.22;;;13.71;100.00
18678;BME280;9469;51.114;13.914;2023-04-16T16:13:35;99011.13;;;13.66;100.00
18678;BME280;9469;51.114;13.914;2023-04-16T16:18:40;99011.78;;;13.72;100.00
18678;BME280;9469;51.114;13.914;2023-04-16T16:23:48;99015.06;;;13.68;100.00
18678;BME280;9469;51.114;13.914;2023-04-16T16:28:54;99027.41;;;13.30;100.00
18678;BME280;9469;51.114;13.914;2023-04-16T16:33:59;99027.72;;;12.98;100.00
18678;BME280;9469;51.114;13.914;2023-04-16T16:39:07;99031.88;;;13.60;100.00
18678;BME280;9469;51.114;13.914;2023-04-16T16:44:13;99043.66;;;13.12;100.00
18678;BME280;9469;51.114;13.914;2023-04-16T16:49:19;99042.03;;;13.41;100.00
18678;BME280;9469;51.114;13.914;2023-04-16T16:54:26;99045.69;;;13.06;100.00
18678;BME280;9469;51.114;13.914;2023-04-16T16:59:31;99051.03;;;13.06;100.00
18678;BME280;9469;51.114;13.914;2023-04-16T17:04:37;99056.34;;;12.75;100.00
18678;BME280;9469;51.114;13.914;2023-04-16T17:09:44;99059.66;;;12.81;100.00
18678;BME280;9469;51.114;13.914;2023-04-16T17:14:50;99060.22;;;12.69;100.00
18678;BME280;9469;51.114;13.914;2023-04-16T17:19:57;99060.56;;;12.46;100.00
18678;BME280;9469;51.114;13.914;2023-04-16T17:25:06;99071.59;;;12.53;100.00
18678;BME280;9469;51.114;13.914;2023-04-16T17:30:13;99075.19;;;12.48;100.00
18678;BME280;9469;51.114;13.914;2023-04-16T17:35:19;99078.88;;;12.39;100.00
18678;BME280;9469;51.114;13.914;2023-04-16T17:40:28;99085.22;;;12.29;100.00
18678;BME280;9469;51.114;13.914;2023-04-16T17:45:35;99081.91;;;12.46;100.00
18678;BME280;9469;51.114;13.914;2023-04-16T17:50:41;99092.84;;;12.44;100.00
18678;BME280;9469;51.114;13.914;2023-04-16T17:55:52;99090.19;;;12.44;100.00
18678;BME280;9469;51.114;13.914;2023-04-16T18:00:58;99102.88;;;12.61;100.00
18678;BME280;9469;51.114;13.914;2023-04-16T18:06:05;99108.69;;;12.05;100.00
18678;BME280;9469;51.114;13.914;2023-04-16T18:11:13;99107.28;;;12.21;100.00
18678;BME280;9469;51.114;13.914;2023-04-16T18:16:19;99106.75;;;12.19;100.00
18678;BME280;9469;51.114;13.914;2023-04-16T18:21:24;99115.22;;;11.85;100.00
18678;BME280;9469;51.114;13.914;2023-04-16T18:26:33;99116.56;;;12.10;100.00
18678;BME280;9469;51.114;13.914;2023-04-16T18:31:42;99118.88;;;11.89;100.00
18678;BME280;9469;51.114;13.914;2023-04-16T18:36:48;99130.13;;;11.86;100.00
18678;BME280;9469;51.114;13.914;2023-04-16T18:41:57;99131.59;;;11.92;100.00
18678;BME280;9469;51.114;13.914;2023-04-16T18:47:04;99145.44;;;11.67;100.00
18678;BME280;9469;51.114;13.914;2023-04-16T18:52:10;99146.59;;;11.61;100.00
18678;BME280;9469;51.114;13.914;2023-04-16T18:57:18;99152.00;;;11.56;100.00
18678;BME280;9469;51.114;13.914;2023-04-16T19:02:24;99141.38;;;11.70;100.00
18678;BME280;9469;51.114;13.914;2023-04-16T19:07:33;99160.47;;;11.31;100.00
18678;BME280;9469;51.114;13.914;2023-04-16T19:12:45;99149.34;;;11.42;100.00
18678;BME280;9469;51.114;13.914;2023-04-16T19:17:52;99147.16;;;11.31;100.00
18678;BME280;9469;51.114;13.914;2023-04-16T19:22:58;99165.75;;;11.17;100.00
18678;BME280;9469;51.114;13.914;2023-04-16T19:28:10;99161.84;;;11.15;100.00
18678;BME280;9469;51.114;13.914;2023-04-16T19:33:19;99161.00;;;11.01;100.00
18678;BME280;9469;51.114;13.914;2023-04-16T19:38:24;99172.66;;;10.86;100.00
18678;BME280;9469;51.114;13.914;2023-04-16T19:43:35;99169.81;;;10.82;100.00
18678;BME280;9469;51.114;13.914;2023-04-16T19:48:41;99165.97;;;10.89;100.00
18678;BME280;9469;51.114;13.914;2023-04-16T19:53:47;99168.22;;;11.14;100.00
18678;BME280;9469;51.114;13.914;2023-04-16T19:58:56;99173.16;;;10.88;100.00
18678;BME280;9469;51.114;13.914;2023-04-16T20:04:02;99181.38;;;11.24;100.00
18678;BME280;9469;51.114;13.914;2023-04-16T20:09:08;99177.16;;;11.04;100.00
18678;BME280;9469;51.114;13.914;2023-04-16T20:14:19;99176.91;;;11.06;100.00
18678;BME280;9469;51.114;13.914;2023-04-16T20:19:24;99172.03;;;10.94;100.00
18678;BME280;9469;51.114;13.914;2023-04-16T20:24:34;99178.59;;;11.29;100.00
18678;BME280;9469;51.114;13.914;2023-04-16T20:29:42;99162.59;;;11.15;100.00
18678;BME280;9469;51.114;13.914;2023-04-16T20:34:47;99176.97;;;11.33;100.00
18678;BME280;9469;51.114;13.914;2023-04-16T20:39:52;99171.13;;;11.31;100.00
18678;BME280;9469;51.114;13.914;2023-04-16T20:45:01;99169.84;;;10.96;100.00
18678;BME280;9469;51.114;13.914;2023-04-16T20:50:07;99172.16;;;10.84;100.00
18678;BME280;9469;51.114;13.914;2023-04-16T20:55:14;99184.28;;;11.09;100.00
18678;BME280;9469;51.114;13.914;2023-04-16T21:00:22;99173.81;;;10.99;100.00
18678;BME280;9469;51.114;13.914;2023-04-16T21:05:28;99183.47;;;10.76;100.00
18678;BME280;9469;51.114;13.914;2023-04-16T21:10:35;99185.09;;;10.91;100.00
18678;BME280;9469;51.114;13.914;2023-04-16T21:15:43;99189.25;;;10.83;100.00
18678;BME280;9469;51.114;13.914;2023-04-16T21:20:48;99185.59;;;10.93;100.00
18678;BME280;9469;51.114;13.914;2023-04-16T21:25:54;99185.97;;;10.86;100.00
18678;BME280;9469;51.114;13.914;2023-04-16T21:31:04;99186.03;;;11.00;100.00
18678;BME280;9469;51.114;13.914;2023-04-16T21:36:09;99195.00;;;10.71;100.00
18678;BME280;9469;51.114;13.914;2023-04-16T21:41:15;99192.97;;;10.82;100.00
18678;BME280;9469;51.114;13.914;2023-04-16T21:46:22;99173.81;;;10.99;100.00
18678;BME280;9469;51.114;13.914;2023-04-16T21:51:28;99186.03;;;11.00;100.00
18678;BME280;9469;51.114;13.914;2023-04-16T21:56:33;99188.03;;;11.08;100.00
18678;BME280;9469;51.114;13.914;2023-04-16T22:01:41;99191.28;;;10.86;100.00
18678;BME280;9469;51.114;13.914;2023-04-16T22:06:49;99185.75;;;11.01;100.00
18678;BME280;9469;51.114;13.914;2023-04-16T22:11:58;99188.94;;;10.85;100.00
18678;BME280;9469;51.114;13.914;2023-04-16T22:17:08;99194.13;;;11.08;100.00
18678;BME280;9469;51.114;13.914;2023-04-16T22:22:14;99188.53;;;11.10;100.00
18678;BME280;9469;51.114;13.914;2023-04-16T22:27:22;99185.19;;;10.86;100.00
18678;BME280;9469;51.114;13.914;2023-04-16T22:32:31;99191.66;;;10.79;100.00
18678;BME280;9469;51.114;13.914;2023-04-16T22:37:37;99195.56;;;10.87;100.00
18678;BME280;9469;51.114;13.914;2023-04-16T22:42:42;99183.63;;;10.85;100.00
18678;BME280;9469;51.114;13.914;2023-04-16T22:47:50;99192.53;;;10.75;100.00
18678;BME280;9469;51.114;13.914;2023-04-16T22:52:55;99191.97;;;10.59;100.00
18678;BME280;9469;51.114;13.914;2023-04-16T22:58:00;99193.63;;;10.74;100.00
18678;BME280;9469;51.114;13.914;2023-04-16T23:03:08;99189.44;;;10.49;100.00
18678;BME280;9469;51.114;13.914;2023-04-16T23:08:15;99182.06;;;10.46;100.00
18678;BME280;9469;51.114;13.914;2023-04-16T23:13:25;99189.97;;;10.51;100.00
18678;BME280;9469;51.114;13.914;2023-04-16T23:18:32;99186.84;;;10.81;100.00
18678;BME280;9469;51.114;13.914;2023-04-16T23:23:37;99184.78;;;10.60;100.00
18678;BME280;9469;51.114;13.914;2023-04-16T23:28:42;99193.75;;;10.82;100.00
18678;BME280;9469;51.114;13.914;2023-04-16T23:33:50;99183.56;;;10.52;100.00
18678;BME280;9469;51.114;13.914;2023-04-16T23:38:55;99187.44;;;10.60;100.00
18678;BME280;9469;51.114;13.914;2023-04-16T23:44:00;99184.41;;;10.48;100.00
18678;BME280;9469;51.114;13.914;2023-04-16T23:49:10;99180.16;;;10.65;100.00
18678;BME280;9469;51.114;13.914;2023-04-16T23:54:16;99185.91;;;10.72;100.00
18678;BME280;9469;51.114;13.914;2023-04-16T23:59:21;99188.44;;;10.64;100.00
